sensor_id;sensor_type;location;lat;lon;timestamp;pressure;altitude;pressure_sealevel;temperature;humidity
70546;BME280;58098;51.680;5.134;2023-04-20T00:01:36;102355.75;;;7.33;91.99
70546;BME280;58098;51.680;5.134;2023-04-20T00:04:01;102350.63;;;7.31;88.04
70546;BME280;58098;51.680;5.134;2023-04-20T00:06:27;102345.16;;;7.17;89.47
70546;BME280;58098;51.680;5.134;2023-04-20T00:08:57;102339.00;;;7.20;88.59
70546;BME280;58098;51.680;5.134;2023-04-20T00:11:22;102357.97;;;7.22;92.11
70546;BME280;58098;51.680;5.134;2023-04-20T00:13:47;102348.91;;;7.10;91.21
70546;BME280;58098;51.680;5.134;2023-04-20T00:16:13;102338.88;;;7.01;99.44
70546;BME280;58098;51.680;5.134;2023-04-20T00:18:38;102343.13;;;7.04;96.08
70546;BME280;58098;51.680;5.134;2023-04-20T00:21:04;102326.41;;;6.89;97.39
70546;BME280;58098;51.680;5.134;2023-04-20T00:23:30;102339.38;;;6.89;96.96
70546;BME280;58098;51.680;5.134;2023-04-20T00:25:55;102329.28;;;6.82;99.27
70546;BME280;58098;51.680;5.134;2023-04-20T00:28:20;102320.25;;;6.70;97.72
70546;BME280;58098;51.680;5.134;2023-04-20T00:30:46;102304.09;;;6.63;100.00
70546;BME280;58098;51.680;5.134;2023-04-20T00:33:11;102316.03;;;6.68;100.00
70546;BME280;58098;51.680;5.134;2023-04-20T00:35:36;102320.13;;;6.73;97.69
70546;BME280;58098;51.680;5.134;2023-04-20T00:38:02;102324.66;;;6.68;100.00
70546;BME280;58098;51.680;5.134;2023-04-20T00:40:27;102325.69;;;6.64;100.00
70546;BME280;58098;51.680;5.134;2023-04-20T00:42:52;102320.38;;;6.67;100.00
70546;BME280;58098;51.680;5.134;2023-04-20T00:45:18;102314.22;;;6.70;100.00
70546;BME280;58098;51.680;5.134;2023-04-20T00:47:43;102311.59;;;6.71;100.00
70546;BME280;58098;51.680;5.134;2023-04-20T00:50:09;102287.69;;;6.63;99.85
70546;BME280;58098;51.680;5.134;2023-04-20T00:52:35;102310.00;;;6.67;100.00
70546;BME280;58098;51.680;5.134;2023-04-20T00:55:01;102310.94;;;6.64;100.00
70546;BME280;58098;51.680;5.134;2023-04-20T00:57:27;102289.19;;;6.47;100.00
70546;BME280;58098;51.680;5.134;2023-04-20T00:59:52;102294.81;;;6.58;100.00
70546;BME280;58098;51.680;5.134;2023-04-20T01:02:18;102282.19;;;6.49;100.00
70546;BME280;58098;51.680;5.134;2023-04-20T01:04:45;102263.75;;;6.35;100.00
70546;BME280;58098;51.680;5.134;2023-04-20T01:07:11;102262.91;;;6.34;100.00
70546;BME280;58098;51.680;5.134;2023-04-20T01:09:37;102273.97;;;6.38;100.00
70546;BME280;58098;51.680;5.134;2023-04-20T01:12:08;102267.53;;;6.26;100.00
70546;BME280;58098;51.680;5.134;2023-04-20T01:14:33;102267.13;;;6.14;100.00
70546;BME280;58098;51.680;5.134;2023-04-20T01:16:59;102258.81;;;6.06;100.00
70546;BME280;58098;51.680;5.134;2023-04-20T01:19:24;102252.06;;;6.02;100.00
70546;BME280;58098;51.680;5.134;2023-04-20T01:21:50;102243.38;;;6.03;100.00
70546;BME280;58098;51.680;5.134;2023-04-20T01:24:16;102254.34;;;6.09;100.00
70546;BME280;58098;51.680;5.134;2023-04-20T01:26:41;102240.72;;;6.04;100.00
70546;BME280;58098;51.680;5.134;2023-04-20T01:29:06;102223.00;;;5.93;100.00
70546;BME280;58098;51.680;5.134;2023-04-20T01:31:32;102235.91;;;5.95;100.00
70546;BME280;58098;51.680;5.134;2023-04-20T01:33:57;102218.25;;;5.81;100.00
70546;BME280;58098;51.680;5.134;2023-04-20T01:36:22;102238.56;;;5.93;100.00
70546;BME280;58098;51.680;5.134;2023-04-20T01:38:48;102231.09;;;5.84;100.00
70546;BME280;58098;51.680;5.134;2023-04-20T01:41:13;102225.22;;;5.79;100.00
70546;BME280;58098;51.680;5.134;2023-04-20T01:43:39;102224.59;;;5.73;100.00
70546;BME280;58098;51.680;5.134;2023-04-20T01:46:04;102227.13;;;5.74;100.00
70546;BME280;58098;51.680;5.134;2023-04-20T01:48:30;102207.81;;;5.60;100.00
70546;BME280;58098;51.680;5.134;2023-04-20T01:50:55;102213.97;;;5.57;100.00
70546;BME280;58098;51.680;5.134;2023-04-20T01:53:21;102196.28;;;5.45;100.00
70546;BME280;58098;51.680;5.134;2023-04-20T01:55:47;102214.38;;;5.45;100.00
70546;BME280;58098;51.680;5.134;2023-04-20T01:58:12;102171.56;;;5.13;100.00
70546;BME280;58098;51.680;5.134;2023-04-20T02:00:38;102187.88;;;5.39;100.00
70546;BME280;58098;51.680;5.134;2023-04-20T02:03:03;102196.94;;;5.50;100.00
70546;BME280;58098;51.680;5.134;2023-04-20T02:05:29;102205.75;;;5.46;100.00
70546;BME280;58098;51.680;5.134;2023-04-20T02:07:54;102200.72;;;5.42;100.00
70546;BME280;58098;51.680;5.134;2023-04-20T02:10:20;102185.56;;;5.31;100.00
70546;BME280;58098;51.680;5.134;2023-04-20T02:12:46;102181.78;;;5.16;100.00
70546;BME280;58098;51.680;5.134;2023-04-20T02:15:12;102182.88;;;5.11;100.00
70546;BME280;58098;51.680;5.134;2023-04-20T02:17:37;102194.97;;;5.09;100.00
70546;BME280;58098;51.680;5.134;2023-04-20T02:20:03;102190.03;;;5.03;100.00
70546;BME280;58098;51.680;5.134;2023-04-20T02:22:33;102170.28;;;5.00;100.00
70546;BME280;58098;51.680;5.134;2023-04-20T02:25:00;102169.78;;;5.14;100.00
70546;BME280;58098;51.680;5.134;2023-04-20T02:27:26;102179.09;;;5.19;100.00
70546;BME280;58098;51.680;5.134;2023-04-20T02:29:52;102170.38;;;5.22;100.00
70546;BME280;58098;51.680;5.134;2023-04-20T02:32:17;102166.69;;;5.29;100.00
70546;BME280;58098;51.680;5.134;2023-04-20T02:34:42;102157.44;;;5.22;100.00
70546;BME280;58098;51.680;5.134;2023-04-20T02:37:07;102153.47;;;5.37;100.00
70546;BME280;58098;51.680;5.134;2023-04-20T02:39:33;102144.69;;;5.41;100.00
70546;BME280;58098;51.680;5.134;2023-04-20T02:41:58;102155.53;;;5.50;100.00
70546;BME280;58098;51.680;5.134;2023-04-20T02:44:23;102174.22;;;5.81;100.00
70546;BME280;58098;51.680;5.134;2023-04-20T02:46:49;102162.06;;;5.83;100.00
70546;BME280;58098;51.680;5.134;2023-04-20T02:49:14;102142.03;;;5.88;100.00
70546;BME280;58098;51.680;5.134;2023-04-20T02:51:39;102153.91;;;5.94;100.00
70546;BME280;58098;51.680;5.134;2023-04-20T02:54:05;102147.22;;;5.88;100.00
70546;BME280;58098;51.680;5.134;2023-04-20T02:56:30;102154.84;;;5.91;100.00
70546;BME280;58098;51.680;5.134;2023-04-20T02:58:55;102151.72;;;5.83;100.00
70546;BME280;58098;51.680;5.134;2023-04-20T03:01:21;102137.06;;;5.82;100.00
70546;BME280;58098;51.680;5.134;2023-04-20T03:03:46;102135.59;;;5.75;100.00
70546;BME280;58098;51.680;5.134;2023-04-20T03:06:11;102149.34;;;5.77;100.00
70546;BME280;58098;51.680;5.134;2023-04-20T03:08:37;102145.59;;;5.86;100.00
70546;BME280;58098;51.680;5.134;2023-04-20T03:11:02;102135.78;;;5.71;100.00
70546;BME280;58098;51.680;5.134;2023-04-20T03:13:27;102136.44;;;5.76;100.00
70546;BME280;58098;51.680;5.134;2023-04-20T03:15:53;102135.91;;;5.68;100.00
70546;BME280;58098;51.680;5.134;2023-04-20T03:18:18;102129.25;;;5.61;100.00
70546;BME280;58098;51.680;5.134;2023-04-20T03:20:43;102141.81;;;5.71;100.00
70546;BME280;58098;51.680;5.134;2023-04-20T03:23:08;102139.34;;;5.68;100.00
70546;BME280;58098;51.680;5.134;2023-04-20T03:25:35;102121.78;;;5.76;100.00
70546;BME280;58098;51.680;5.134;2023-04-20T03:28:00;102139.16;;;5.96;100.00
70546;BME280;58098;51.680;5.134;2023-04-20T03:30:25;102105.09;;;5.83;100.00
70546;BME280;58098;51.680;5.134;2023-04-20T03:32:51;102120.19;;;5.95;100.00
70546;BME280;58098;51.680;5.134;2023-04-20T03:35:16;102120.84;;;6.01;100.00
70546;BME280;58098;51.680;5.134;2023-04-20T03:37:42;102113.13;;;5.99;100.00
70546;BME280;58098;51.680;5.134;2023-04-20T03:40:07;102116.50;;;6.23;100.00
70546;BME280;58098;51.680;5.134;2023-04-20T03:42:33;102108.19;;;6.15;100.00
70546;BME280;58098;51.680;5.134;2023-04-20T03:44:58;102111.81;;;6.31;100.00
70546;BME280;58098;51.680;5.134;2023-04-20T03:47:24;102095.50;;;6.29;100.00
70546;BME280;58098;51.680;5.134;2023-04-20T03:49:49;102099.72;;;6.31;100.00
70546;BME280;58098;51.680;5.134;2023-04-20T03:52:15;102059.06;;;6.12;100.00
70546;BME280;58098;51.680;5.134;2023-04-20T03:54:40;102106.22;;;6.41;100.00
70546;BME280;58098;51.680;5.134;2023-04-20T03:57:05;102083.19;;;6.34;100.00
70546;BME280;58098;51.680;5.134;2023-04-20T03:59:31;102104.19;;;6.48;100.00
70546;BME280;58098;51.680;5.134;2023-04-20T04:01:56;102085.56;;;6.40;100.00
70546;BME280;58098;51.680;5.134;2023-04-20T04:04:22;102080.88;;;6.48;100.00
70546;BME280;58098;51.680;5.134;2023-04-20T04:06:47;102087.34;;;6.58;100.00
70546;BME280;58098;51.680;5.134;2023-04-20T04:09:13;102095.59;;;6.68;100.00
70546;BME280;58098;51.680;5.134;2023-04-20T04:11:38;102085.41;;;6.63;100.00
70546;BME280;58098;51.680;5.134;2023-04-20T04:14:03;102082.25;;;6.56;100.00
70546;BME280;58098;51.680;5.134;2023-04-20T04:16:31;102084.09;;;6.53;100.00
70546;BME280;58098;51.680;5.134;2023-04-20T04:18:57;102085.81;;;6.54;100.00
70546;BME280;58098;51.680;5.134;2023-04-20T04:21:22;102074.38;;;6.58;100.00
70546;BME280;58098;51.680;5.134;2023-04-20T04:23:48;102066.38;;;6.64;100.00
70546;BME280;58098;51.680;5.134;2023-04-20T04:26:13;102062.59;;;6.71;100.00
70546;BME280;58098;51.680;5.134;2023-04-20T04:28:39;102071.91;;;6.95;100.00
70546;BME280;58098;51.680;5.134;2023-04-20T04:31:05;102060.88;;;6.90;100.00
70546;BME280;58098;51.680;5.134;2023-04-20T04:33:31;102050.84;;;6.83;100.00
70546;BME280;58098;51.680;5.134;2023-04-20T04:35:58;102063.19;;;6.96;100.00
70546;BME280;58098;51.680;5.134;2023-04-20T04:38:24;102046.09;;;6.92;100.00
70546;BME280;58098;51.680;5.134;2023-04-20T04:40:51;102043.50;;;6.92;100.00
70546;BME280;58098;51.680;5.134;2023-04-20T04:43:16;102039.72;;;6.99;100.00
70546;BME280;58098;51.680;5.134;2023-04-20T04:45:43;102037.97;;;7.00;100.00
70546;BME280;58098;51.680;5.134;2023-04-20T04:48:10;102051.38;;;7.09;100.00
70546;BME280;58098;51.680;5.134;2023-04-20T04:50:36;102023.44;;;7.14;100.00
70546;BME280;58098;51.680;5.134;2023-04-20T04:53:02;102036.94;;;7.22;100.00
70546;BME280;58098;51.680;5.134;2023-04-20T04:55:27;102033.34;;;7.25;100.00
70546;BME280;58098;51.680;5.134;2023-04-20T04:57:52;102029.28;;;7.19;100.00
70546;BME280;58098;51.680;5.134;2023-04-20T05:00:18;102021.63;;;7.16;100.00
70546;BME280;58098;51.680;5.134;2023-04-20T05:02:43;102023.78;;;7.25;100.00
70546;BME280;58098;51.680;5.134;2023-04-20T05:05:08;102020.44;;;7.23;100.00
70546;BME280;58098;51.680;5.134;2023-04-20T05:07:34;102028.16;;;7.25;100.00
70546;BME280;58098;51.680;5.134;2023-04-20T05:09:59;102006.03;;;7.16;100.00
70546;BME280;58098;51.680;5.134;2023-04-20T05:12:24;102018.59;;;7.25;100.00
70546;BME280;58098;51.680;5.134;2023-04-20T05:14:51;102005.97;;;7.18;100.00
70546;BME280;58098;51.680;5.134;2023-04-20T05:17:16;101994.00;;;7.15;100.00
70546;BME280;58098;51.680;5.134;2023-04-20T05:19:42;101993.91;;;7.17;100.00
70546;BME280;58098;51.680;5.134;2023-04-20T05:22:07;101997.19;;;7.20;100.00
70546;BME280;58098;51.680;5.134;2023-04-20T05:24:32;102012.81;;;7.38;100.00
70546;BME280;58098;51.680;5.134;2023-04-20T05:26:58;102006.31;;;7.29;100.00
70546;BME280;58098;51.680;5.134;2023-04-20T05:29:23;102028.41;;;7.38;100.00
70546;BME280;58098;51.680;5.134;2023-04-20T05:31:48;102022.53;;;7.34;100.00
70546;BME280;58098;51.680;5.134;2023-04-20T05:34:14;102019.22;;;7.30;100.00
70546;BME280;58098;51.680;5.134;2023-04-20T05:36:39;102017.47;;;7.31;100.00
70546;BME280;58098;51.680;5.134;2023-04-20T05:39:05;101994.34;;;7.26;100.00
70546;BME280;58098;51.680;5.134;2023-04-20T05:41:30;102007.84;;;7.33;100.00
70546;BME280;58098;51.680;5.134;2023-04-20T05:43:56;102010.75;;;7.27;100.00
70546;BME280;58098;51.680;5.134;2023-04-20T05:46:21;101998.88;;;7.21;100.00
70546;BME280;58098;51.680;5.134;2023-04-20T05:48:47;102009.13;;;7.24;100.00
70546;BME280;58098;51.680;5.134;2023-04-20T05:51:13;101998.69;;;7.26;100.00
70546;BME280;58098;51.680;5.134;2023-04-20T05:53:38;101998.69;;;7.26;100.00
70546;BME280;58098;51.680;5.134;2023-04-20T05:56:05;102005.88;;;7.38;100.00
70546;BME280;58098;51.680;5.134;2023-04-20T05:58:31;102003.06;;;7.43;100.00
70546;BME280;58098;51.680;5.134;2023-04-20T06:00:57;102003.56;;;7.51;100.00
70546;BME280;58098;51.680;5.134;2023-04-20T06:03:22;101990.88;;;7.45;100.00
70546;BME280;58098;51.680;5.134;2023-04-20T06:05:48;101989.09;;;7.64;100.00
70546;BME280;58098;51.680;5.134;2023-04-20T06:08:13;101971.66;;;7.66;100.00
70546;BME280;58098;51.680;5.134;2023-04-20T06:10:38;101980.91;;;7.88;100.00
70546;BME280;58098;51.680;5.134;2023-04-20T06:13:04;101982.09;;;8.00;100.00
70546;BME280;58098;51.680;5.134;2023-04-20T06:15:30;101969.69;;;8.05;100.00
70546;BME280;58098;51.680;5.134;2023-04-20T06:17:55;101973.34;;;8.18;100.00
70546;BME280;58098;51.680;5.134;2023-04-20T06:20:21;101966.47;;;8.17;100.00
70546;BME280;58098;51.680;5.134;2023-04-20T06:22:46;101980.72;;;8.27;100.00
70546;BME280;58098;51.680;5.134;2023-04-20T06:25:12;101922.31;;;8.00;100.00
70546;BME280;58098;51.680;5.134;2023-04-20T06:27:38;101968.31;;;8.32;100.00
70546;BME280;58098;51.680;5.134;2023-04-20T06:30:04;101979.25;;;8.39;100.00
70546;BME280;58098;51.680;5.134;2023-04-20T06:32:30;101961.03;;;8.39;100.00
70546;BME280;58098;51.680;5.134;2023-04-20T06:34:55;101982.34;;;8.62;100.00
70546;BME280;58098;51.680;5.134;2023-04-20T06:37:21;101953.22;;;8.56;100.00
70546;BME280;58098;51.680;5.134;2023-04-20T06:39:46;101966.22;;;8.72;100.00
70546;BME280;58098;51.680;5.134;2023-04-20T06:42:11;101947.41;;;8.67;100.00
70546;BME280;58098;51.680;5.134;2023-04-20T06:44:38;101963.41;;;8.92;100.00
70546;BME280;58098;51.680;5.134;2023-04-20T06:47:04;101963.25;;;8.95;100.00
70546;BME280;58098;51.680;5.134;2023-04-20T06:49:29;101948.13;;;9.01;100.00
70546;BME280;58098;51.680;5.134;2023-04-20T06:51:54;101967.53;;;9.11;100.00
70546;BME280;58098;51.680;5.134;2023-04-20T06:54:20;101960.03;;;9.05;100.00
70546;BME280;58098;51.680;5.134;2023-04-20T06:56:45;101953.84;;;9.08;100.00
70546;BME280;58098;51.680;5.134;2023-04-20T06:59:10;101956.78;;;9.02;100.00
70546;BME280;58098;51.680;5.134;2023-04-20T07:01:36;101947.72;;;9.09;100.00
70546;BME280;58098;51.680;5.134;2023-04-20T07:04:01;101960.97;;;9.20;100.00
70546;BME280;58098;51.680;5.134;2023-04-20T07:06:26;101957.88;;;9.29;100.00
70546;BME280;58098;51.680;5.134;2023-04-20T07:08:52;101957.69;;;9.32;100.00
70546;BME280;58098;51.680;5.134;2023-04-20T07:11:18;101934.69;;;9.24;100.00
70546;BME280;58098;51.680;5.134;2023-04-20T07:13:43;101947.25;;;9.48;100.00
70546;BME280;58098;51.680;5.134;2023-04-20T07:16:08;101954.94;;;9.65;100.00
70546;BME280;58098;51.680;5.134;2023-04-20T07:18:34;101952.13;;;9.83;100.00
70546;BME280;58098;51.680;5.134;2023-04-20T07:21:00;101951.06;;;10.02;100.00
70546;BME280;58098;51.680;5.134;2023-04-20T07:23:25;101967.91;;;10.10;100.00
70546;BME280;58098;51.680;5.134;2023-04-20T07:25:51;101957.63;;;10.23;100.00
70546;BME280;58098;51.680;5.134;2023-04-20T07:28:16;101956.25;;;10.31;100.00
70546;BME280;58098;51.680;5.134;2023-04-20T07:30:41;101938.06;;;10.30;100.00
70546;BME280;58098;51.680;5.134;2023-04-20T07:33:07;101953.28;;;10.23;100.00
70546;BME280;58098;51.680;5.134;2023-04-20T07:35:33;101968.44;;;10.17;100.00
70546;BME280;58098;51.680;5.134;2023-04-20T07:37:58;101944.09;;;10.02;100.00
70546;BME280;58098;51.680;5.134;2023-04-20T07:40:24;101961.03;;;10.09;100.00
70546;BME280;58098;51.680;5.134;2023-04-20T07:42:49;101953.66;;;10.02;100.00
70546;BME280;58098;51.680;5.134;2023-04-20T07:45:14;101951.47;;;10.10;100.00
70546;BME280;58098;51.680;5.134;2023-04-20T07:47:40;101960.91;;;10.12;100.00
70546;BME280;58098;51.680;5.134;2023-04-20T07:50:08;101957.03;;;10.04;100.00
70546;BME280;58098;51.680;5.134;2023-04-20T07:52:33;101954.59;;;10.01;100.00
70546;BME280;58098;51.680;5.134;2023-04-20T07:54:59;101953.91;;;10.13;100.00
70546;BME280;58098;51.680;5.134;2023-04-20T07:57:25;101958.78;;;10.33;100.00
70546;BME280;58098;51.680;5.134;2023-04-20T07:59:51;101941.06;;;10.38;100.00
70546;BME280;58098;51.680;5.134;2023-04-20T08:02:16;101959.72;;;10.60;100.00
70546;BME280;58098;51.680;5.134;2023-04-20T08:04:42;101950.47;;;10.69;100.00
70546;BME280;58098;51.680;5.134;2023-04-20T08:07:10;101939.47;;;10.63;100.00
70546;BME280;58098;51.680;5.134;2023-04-20T08:09:36;101942.53;;;10.84;100.00
70546;BME280;58098;51.680;5.134;2023-04-20T08:12:01;101919.75;;;11.00;100.00
70546;BME280;58098;51.680;5.134;2023-04-20T08:14:26;101944.06;;;11.42;100.00
70546;BME280;58098;51.680;5.134;2023-04-20T08:16:52;101928.28;;;11.43;100.00
70546;BME280;58098;51.680;5.134;2023-04-20T08:19:17;101937.00;;;11.56;100.00
70546;BME280;58098;51.680;5.134;2023-04-20T08:21:42;101931.38;;;11.62;100.00
70546;BME280;58098;51.680;5.134;2023-04-20T08:24:08;101916.88;;;11.71;100.00
70546;BME280;58098;51.680;5.134;2023-04-20T08:26:33;101921.28;;;11.83;100.00
70546;BME280;58098;51.680;5.134;2023-04-20T08:28:59;101905.22;;;12.02;100.00
70546;BME280;58098;51.680;5.134;2023-04-20T08:31:26;101896.19;;;11.93;100.00
70546;BME280;58098;51.680;5.134;2023-04-20T08:33:51;101911.66;;;11.71;100.00
70546;BME280;58098;51.680;5.134;2023-04-20T08:36:17;101904.94;;;11.67;100.00
70546;BME280;58098;51.680;5.134;2023-04-20T08:38:42;101889.25;;;11.67;100.00
70546;BME280;58098;51.680;5.134;2023-04-20T08:41:08;101917.13;;;12.06;100.00
70546;BME280;58098;51.680;5.134;2023-04-20T08:43:37;101892.88;;;12.16;100.00
70546;BME280;58098;51.680;5.134;2023-04-20T08:46:02;101914.84;;;12.14;100.00
70546;BME280;58098;51.680;5.134;2023-04-20T08:48:35;101905.00;;;12.17;100.00
70546;BME280;58098;51.680;5.134;2023-04-20T08:51:02;101908.66;;;12.27;100.00
70546;BME280;58098;51.680;5.134;2023-04-20T08:53:28;101908.25;;;12.33;100.00
70546;BME280;58098;51.680;5.134;2023-04-20T08:55:53;101899.16;;;12.14;100.00
70546;BME280;58098;51.680;5.134;2023-04-20T08:58:23;101913.16;;;12.25;100.00
70546;BME280;58098;51.680;5.134;2023-04-20T09:00:49;101892.16;;;12.14;100.00
70546;BME280;58098;51.680;5.134;2023-04-20T09:03:14;101894.31;;;12.08;100.00
70546;BME280;58098;51.680;5.134;2023-04-20T09:05:40;101890.34;;;11.77;100.00
70546;BME280;58098;51.680;5.134;2023-04-20T09:08:06;101904.19;;;12.04;100.00
70546;BME280;58098;51.680;5.134;2023-04-20T09:10:43;101877.38;;;12.26;100.00
70546;BME280;58098;51.680;5.134;2023-04-20T09:13:20;101880.88;;;12.63;100.00
70546;BME280;58098;51.680;5.134;2023-04-20T09:15:45;101870.97;;;12.79;100.00
70546;BME280;58098;51.680;5.134;2023-04-20T09:18:12;101889.38;;;12.90;100.00
70546;BME280;58098;51.680;5.134;2023-04-20T09:20:41;101895.00;;;13.09;100.00
70546;BME280;58098;51.680;5.134;2023-04-20T09:23:17;101898.00;;;13.15;100.00
70546;BME280;58098;51.680;5.134;2023-04-20T09:25:50;101894.47;;;13.04;100.00
70546;BME280;58098;51.680;5.134;2023-04-20T09:28:20;101891.16;;;12.89;100.00
70546;BME280;58098;51.680;5.134;2023-04-20T09:30:47;101885.00;;;12.78;100.00
70546;BME280;58098;51.680;5.134;2023-04-20T09:33:13;101892.94;;;12.89;100.00
70546;BME280;58098;51.680;5.134;2023-04-20T09:35:41;101887.75;;;12.64;100.00
70546;BME280;58098;51.680;5.134;2023-04-20T09:38:07;101855.03;;;12.45;100.00
70546;BME280;58098;51.680;5.134;2023-04-20T09:40:33;101884.97;;;12.54;100.00
70546;BME280;58098;51.680;5.134;2023-04-20T09:43:08;101864.78;;;12.43;100.00
70546;BME280;58098;51.680;5.134;2023-04-20T09:45:34;101869.28;;;12.41;100.00
70546;BME280;58098;51.680;5.134;2023-04-20T09:48:03;101872.53;;;12.32;100.00
70546;BME280;58098;51.680;5.134;2023-04-20T09:50:31;101878.41;;;12.11;100.00
70546;BME280;58098;51.680;5.134;2023-04-20T09:52:56;101877.88;;;11.93;100.00
70546;BME280;58098;51.680;5.134;2023-04-20T09:55:22;101880.84;;;12.01;100.00
70546;BME280;58098;51.680;5.134;2023-04-20T09:57:51;101872.75;;;11.79;100.00
70546;BME280;58098;51.680;5.134;2023-04-20T10:00:20;101871.06;;;11.78;100.00
70546;BME280;58098;51.680;5.134;2023-04-20T10:02:46;101881.03;;;11.85;100.00
70546;BME280;58098;51.680;5.134;2023-04-20T10:05:12;101874.03;;;11.86;100.00
70546;BME280;58098;51.680;5.134;2023-04-20T10:07:37;101865.44;;;11.71;100.00
70546;BME280;58098;51.680;5.134;2023-04-20T10:10:10;101875.50;;;11.77;100.00
70546;BME280;58098;51.680;5.134;2023-04-20T10:12:50;101855.97;;;11.56;100.00
70546;BME280;58098;51.680;5.134;2023-04-20T10:15:16;101863.84;;;11.29;100.00
70546;BME280;58098;51.680;5.134;2023-04-20T10:17:41;101864.69;;;11.30;100.00
70546;BME280;58098;51.680;5.134;2023-04-20T10:20:21;101867.41;;;11.28;100.00
70546;BME280;58098;51.680;5.134;2023-04-20T10:22:46;101866.22;;;11.20;100.00
70546;BME280;58098;51.680;5.134;2023-04-20T10:25:17;101864.09;;;11.12;100.00
70546;BME280;58098;51.680;5.134;2023-04-20T10:28:00;101865.50;;;11.18;100.00
70546;BME280;58098;51.680;5.134;2023-04-20T10:30:29;101853.47;;;10.89;100.00
70546;BME280;58098;51.680;5.134;2023-04-20T10:33:09;101874.41;;;11.01;100.00
70546;BME280;58098;51.680;5.134;2023-04-20T10:36:01;101874.47;;;11.14;100.00
70546;BME280;58098;51.680;5.134;2023-04-20T10:38:28;101846.16;;;11.20;100.00
70546;BME280;58098;51.680;5.134;2023-04-20T10:40:54;101852.69;;;11.40;100.00
70546;BME280;58098;51.680;5.134;2023-04-20T10:43:20;101849.47;;;11.49;100.00
70546;BME280;58098;51.680;5.134;2023-04-20T10:45:47;101858.06;;;11.64;100.00
70546;BME280;58098;51.680;5.134;2023-04-20T10:48:13;101852.63;;;11.67;100.00
70546;BME280;58098;51.680;5.134;2023-04-20T10:50:38;101851.63;;;11.82;100.00
70546;BME280;58098;51.680;5.134;2023-04-20T10:53:04;101857.38;;;11.74;100.00
70546;BME280;58098;51.680;5.134;2023-04-20T10:55:29;101864.44;;;11.60;100.00
70546;BME280;58098;51.680;5.134;2023-04-20T10:57:55;101858.03;;;11.39;100.00
70546;BME280;58098;51.680;5.134;2023-04-20T11:00:25;101858.44;;;11.33;100.00
70546;BME280;58098;51.680;5.134;2023-04-20T11:02:54;101854.13;;;11.19;100.00
70546;BME280;58098;51.680;5.134;2023-04-20T11:05:21;101851.25;;;11.09;100.00
70546;BME280;58098;51.680;5.134;2023-04-20T11:10:16;101839.25;;;11.46;100.00
70546;BME280;58098;51.680;5.134;2023-04-20T11:12:41;101825.84;;;11.63;100.00
70546;BME280;58098;51.680;5.134;2023-04-20T11:15:07;101818.38;;;11.84;100.00
70546;BME280;58098;51.680;5.134;2023-04-20T11:17:35;101823.81;;;12.06;100.00
70546;BME280;58098;51.680;5.134;2023-04-20T11:20:11;101811.16;;;12.36;100.00
70546;BME280;58098;51.680;5.134;2023-04-20T11:22:38;101813.88;;;12.47;100.00
70546;BME280;58098;51.680;5.134;2023-04-20T11:25:04;101803.31;;;12.36;100.00
70546;BME280;58098;51.680;5.134;2023-04-20T11:27:31;101810.06;;;12.28;100.00
70546;BME280;58098;51.680;5.134;2023-04-20T11:29:57;101818.28;;;12.71;100.00
70546;BME280;58098;51.680;5.134;2023-04-20T11:32:24;101817.00;;;13.00;100.00
70546;BME280;58098;51.680;5.134;2023-04-20T11:35:01;101800.66;;;13.09;100.00
70546;BME280;58098;51.680;5.134;2023-04-20T11:37:27;101794.41;;;12.99;100.00
70546;BME280;58098;51.680;5.134;2023-04-20T11:40:00;101754.63;;;13.29;100.00
70546;BME280;58098;51.680;5.134;2023-04-20T11:42:26;101791.69;;;13.35;100.00
70546;BME280;58098;51.680;5.134;2023-04-20T11:44:52;101802.19;;;13.46;100.00
70546;BME280;58098;51.680;5.134;2023-04-20T11:47:17;101784.72;;;13.69;100.00
70546;BME280;58098;51.680;5.134;2023-04-20T11:49:42;101796.38;;;13.54;100.00
70546;BME280;58098;51.680;5.134;2023-04-20T11:52:08;101776.34;;;13.07;100.00
70546;BME280;58098;51.680;5.134;2023-04-20T11:54:33;101796.94;;;12.88;100.00
70546;BME280;58098;51.680;5.134;2023-04-20T11:56:59;101776.22;;;12.61;100.00
70546;BME280;58098;51.680;5.134;2023-04-20T11:59:24;101797.19;;;12.85;100.00
70546;BME280;58098;51.680;5.134;2023-04-20T12:01:50;101781.13;;;13.13;100.00
70546;BME280;58098;51.680;5.134;2023-04-20T12:04:16;101779.78;;;13.31;100.00
70546;BME280;58098;51.680;5.134;2023-04-20T12:06:41;101786.88;;;13.29;100.00
70546;BME280;58098;51.680;5.134;2023-04-20T12:09:07;101791.25;;;13.06;100.00
70546;BME280;58098;51.680;5.134;2023-04-20T12:11:32;101793.28;;;12.67;100.00
70546;BME280;58098;51.680;5.134;2023-04-20T12:13:57;101793.16;;;12.44;100.00
70546;BME280;58098;51.680;5.134;2023-04-20T12:16:24;101795.88;;;12.43;100.00
70546;BME280;58098;51.680;5.134;2023-04-20T12:18:50;101771.88;;;12.13;100.00
70546;BME280;58098;51.680;5.134;2023-04-20T12:21:15;101774.41;;;12.14;100.00
70546;BME280;58098;51.680;5.134;2023-04-20T12:23:41;101771.03;;;12.12;100.00
70546;BME280;58098;51.680;5.134;2023-04-20T12:26:08;101783.38;;;12.23;100.00
70546;BME280;58098;51.680;5.134;2023-04-20T12:28:33;101780.34;;;12.16;100.00
70546;BME280;58098;51.680;5.134;2023-04-20T12:30:59;101766.78;;;11.99;100.00
70546;BME280;58098;51.680;5.134;2023-04-20T12:33:25;101776.53;;;11.84;100.00
70546;BME280;58098;51.680;5.134;2023-04-20T12:35:50;101773.69;;;11.62;100.00
70546;BME280;58098;51.680;5.134;2023-04-20T12:38:16;101781.97;;;11.56;100.00
70546;BME280;58098;51.680;5.134;2023-04-20T12:40:41;101774.63;;;11.61;100.00
70546;BME280;58098;51.680;5.134;2023-04-20T12:43:07;101769.41;;;11.61;100.00